Time;durP1;ratioP1;P1;durP2;ratioP2;P2;SDS_P1;SDS_P2;PMS_P1;PMS_P2;Temp;Humidity;BMP_temperature;BMP_pressure;BME280_temperature;BME280_humidity;BME280_pressure;Samples;Min_cycle;Max_cycle;Signal;HPM_P1;HPM_P2
2021/05/24 00:01:33;;;;;;;5.95;2.20;;;18.20;72.40;;;;;;4146321;28;20095;-56
2021/05/24 00:03:35;;;;;;;4.43;2.22;;;18.20;72.50;;;;;;4145888;28;20774;-60
2021/05/24 00:05:38;;;;;;;5.15;2.17;;;18.20;72.70;;;;;;4146469;28;20445;-62
2021/05/24 00:07:40;;;;;;;6.32;2.58;;;18.20;72.80;;;;;;4145929;28;20037;-60
2021/05/24 00:09:43;;;;;;;3.05;2.17;;;18.20;73.00;;;;;;4147068;28;20851;-58
2021/05/24 00:11:50;;;;;;;5.68;2.55;;;18.20;72.80;;;;;;4146595;28;20037;-59
2021/05/24 00:13:55;;;;;;;3.50;2.30;;;18.20;73.80;;;;;;4145347;28;20052;-59
2021/05/24 00:15:58;;;;;;;5.60;2.78;;;18.20;74.10;;;;;;4146289;28;20037;-60
2021/05/24 00:18:01;;;;;;;7.18;2.35;;;18.30;74.10;;;;;;4144070;28;20179;-59
2021/05/24 00:20:04;;;;;;;4.28;2.13;;;18.30;74.00;;;;;;4146092;28;20037;-60
2021/05/24 00:22:06;;;;;;;4.70;2.47;;;18.40;74.10;;;;;;4147312;28;20072;-60
2021/05/24 00:24:09;;;;;;;3.92;2.10;;;18.30;74.00;;;;;;4146250;28;20200;-58
2021/05/24 00:26:12;;;;;;;6.43;2.42;;;18.40;74.00;;;;;;4144209;28;20045;-59
2021/05/24 00:28:14;;;;;;;5.50;2.30;;;18.40;73.90;;;;;;4144482;28;20039;-59
2021/05/24 00:30:18;;;;;;;2.57;1.90;;;18.40;73.90;;;;;;4145395;28;20481;-60
2021/05/24 00:32:20;;;;;;;4.00;2.10;;;18.50;73.80;;;;;;4143256;28;20115;-60
2021/05/24 00:34:22;;;;;;;4.85;2.20;;;18.50;73.70;;;;;;4147915;28;20292;-60
2021/05/24 00:36:24;;;;;;;3.55;2.20;;;18.50;73.60;;;;;;4144928;28;20724;-61
2021/05/24 00:38:26;;;;;;;4.07;2.03;;;18.50;73.60;;;;;;4146582;28;20839;-60
2021/05/24 00:40:28;;;;;;;4.18;2.42;;;18.50;73.50;;;;;;4146271;28;20028;-59
2021/05/24 00:42:31;;;;;;;3.40;1.90;;;18.50;73.50;;;;;;4160942;28;20526;-59
2021/05/24 00:44:33;;;;;;;4.40;2.03;;;18.50;73.40;;;;;;4142898;28;20146;-59
2021/05/24 00:46:36;;;;;;;2.63;1.83;;;18.50;73.40;;;;;;4147914;28;20082;-59
2021/05/24 00:48:38;;;;;;;2.90;1.80;;;18.60;73.40;;;;;;4147224;28;20219;-59
2021/05/24 00:50:40;;;;;;;5.78;2.03;;;18.60;73.40;;;;;;4146920;28;20053;-56
2021/05/24 00:52:42;;;;;;;3.20;2.08;;;18.60;73.40;;;;;;4147027;28;20047;-60
2021/05/24 00:54:45;;;;;;;7.93;2.10;;;18.60;73.10;;;;;;4148633;28;20032;-60
2021/05/24 00:56:47;;;;;;;4.00;2.20;;;18.60;73.10;;;;;;4147101;28;20478;-60
2021/05/24 00:58:50;;;;;;;3.58;1.90;;;18.60;73.20;;;;;;4147534;28;20132;-60
2021/05/24 01:00:52;;;;;;;5.07;1.70;;;18.60;73.30;;;;;;4149421;28;20442;-60
2021/05/24 01:02:56;;;;;;;2.67;1.90;;;18.60;73.20;;;;;;4146334;28;20072;-60
2021/05/24 01:04:58;;;;;;;3.10;1.90;;;18.60;73.20;;;;;;4143547;28;20068;-58
2021/05/24 01:07:01;;;;;;;5.28;2.35;;;18.60;73.20;;;;;;4147187;28;20072;-60
2021/05/24 01:09:04;;;;;;;3.70;2.00;;;18.60;73.20;;;;;;4147264;28;20682;-59
2021/05/24 01:11:06;;;;;;;2.78;1.80;;;18.60;73.10;;;;;;4146603;28;20765;-61
2021/05/24 01:13:11;;;;;;;3.10;2.10;;;18.70;73.20;;;;;;4148919;28;20052;-59
2021/05/24 01:15:13;;;;;;;4.15;1.80;;;18.60;73.10;;;;;;4145451;28;20141;-59
2021/05/24 01:17:15;;;;;;;3.55;2.05;;;18.70;73.10;;;;;;4146458;28;20545;-60
2021/05/24 01:19:18;;;;;;;2.50;1.70;;;18.70;73.00;;;;;;4146503;28;20033;-60
2021/05/24 01:21:23;;;;;;;4.78;1.75;;;18.70;73.00;;;;;;4146969;28;20685;-60
2021/05/24 01:23:28;;;;;;;2.80;1.77;;;18.70;73.00;;;;;;4145258;28;20591;-61
2021/05/24 01:25:31;;;;;;;3.83;2.00;;;18.70;73.70;;;;;;4147354;28;20456;-59
2021/05/24 01:27:34;;;;;;;2.88;1.65;;;18.70;73.00;;;;;;4147862;28;20040;-60
2021/05/24 01:29:36;;;;;;;3.35;1.75;;;18.70;73.00;;;;;;4145787;28;20066;-61
2021/05/24 01:31:38;;;;;;;2.03;1.63;;;18.70;73.00;;;;;;4147840;28;20395;-60
2021/05/24 01:33:41;;;;;;;2.83;1.80;;;18.70;73.00;;;;;;4148414;28;20055;-58
2021/05/24 01:35:43;;;;;;;2.80;1.70;;;18.70;73.00;;;;;;4144352;28;20048;-59
2021/05/24 01:37:45;;;;;;;3.17;1.67;;;18.70;73.00;;;;;;4144763;28;20674;-60
2021/05/24 01:39:48;;;;;;;3.88;1.58;;;18.70;73.00;;;;;;4147470;28;20039;-60
2021/05/24 01:41:50;;;;;;;4.68;1.77;;;18.70;73.00;;;;;;4146316;28;20045;-61
2021/05/24 01:43:52;;;;;;;5.38;1.80;;;18.70;73.00;;;;;;4146904;28;20032;-60
2021/05/24 01:45:54;;;;;;;3.78;1.70;;;18.70;72.90;;;;;;4155268;28;20041;-60
2021/05/24 01:47:57;;;;;;;2.53;1.77;;;18.70;73.00;;;;;;4152339;28;20164;-59
2021/05/24 01:49:59;;;;;;;1.85;1.42;;;18.80;73.00;;;;;;4152814;28;20040;-59
2021/05/24 01:52:04;;;;;;;2.08;1.80;;;18.80;73.10;;;;;;4154009;28;20048;-59
2021/05/24 01:54:06;;;;;;;3.00;1.77;;;18.80;73.00;;;;;;4151573;28;20056;-59
2021/05/24 01:56:08;;;;;;;4.22;1.95;;;18.80;73.10;;;;;;4148910;28;20134;-58
2021/05/24 01:58:10;;;;;;;4.03;1.75;;;18.80;73.00;;;;;;4146993;28;20512;-59
2021/05/24 02:00:16;;;;;;;2.80;1.60;;;18.80;73.00;;;;;;4148143;28;20517;-59
2021/05/24 02:02:18;;;;;;;6.45;1.80;;;18.80;73.00;;;;;;4146085;28;20049;-58
2021/05/24 02:04:20;;;;;;;4.68;1.90;;;18.80;73.00;;;;;;4146685;28;20027;-58
2021/05/24 02:06:22;;;;;;;2.25;1.67;;;18.80;73.00;;;;;;4147120;28;20036;-59
2021/05/24 02:08:24;;;;;;;3.70;1.80;;;18.80;73.00;;;;;;4146399;28;20299;-59
2021/05/24 02:10:28;;;;;;;2.35;1.40;;;18.80;73.00;;;;;;4148935;28;20199;-59
2021/05/24 02:12:30;;;;;;;2.33;1.55;;;18.80;73.00;;;;;;4144761;28;20076;-58
2021/05/24 02:14:33;;;;;;;4.75;1.67;;;18.80;72.90;;;;;;4146322;28;20578;-57
2021/05/24 02:16:43;;;;;;;2.65;1.55;;;18.90;73.00;;;;;;4147414;28;20041;-58
2021/05/24 02:18:45;;;;;;;5.50;1.90;;;18.90;72.90;;;;;;4147138;28;20037;-58
2021/05/24 02:20:48;;;;;;;3.15;1.63;;;18.90;72.90;;;;;;4146294;28;20037;-59
2021/05/24 02:22:51;;;;;;;4.28;1.60;;;18.90;73.10;;;;;;4145987;28;20905;-58
2021/05/24 02:24:53;;;;;;;3.72;1.60;;;18.90;72.80;;;;;;4150903;28;20025;-59
2021/05/24 02:26:55;;;;;;;2.40;1.60;;;18.90;72.80;;;;;;4149883;28;20139;-58
2021/05/24 02:28:57;;;;;;;3.30;1.73;;;18.90;72.90;;;;;;4148660;28;20044;-58
2021/05/24 02:30:59;;;;;;;4.15;1.40;;;18.90;72.70;;;;;;4151977;28;20431;-59
2021/05/24 02:33:02;;;;;;;2.00;1.52;;;18.90;72.60;;;;;;4149185;28;20044;-57
2021/05/24 02:35:09;;;;;;;2.90;1.63;;;19.00;72.70;;;;;;4150496;28;20243;-58
2021/05/24 02:37:11;;;;;;;3.17;1.67;;;19.00;72.70;;;;;;4152090;28;20049;-59
2021/05/24 02:39:13;;;;;;;2.95;1.50;;;19.00;72.70;;;;;;4148530;28;20091;-59
2021/05/24 02:41:16;;;;;;;3.63;1.58;;;19.00;72.60;;;;;;4147738;28;20185;-58
2021/05/24 02:43:18;;;;;;;5.30;1.70;;;19.00;72.60;;;;;;4151602;28;20990;-58
2021/05/24 02:45:21;;;;;;;3.55;1.70;;;19.00;72.40;;;;;;4147698;28;20072;-59
2021/05/24 02:47:23;;;;;;;4.05;1.40;;;19.00;72.30;;;;;;4149246;28;20541;-58
2021/05/24 02:49:25;;;;;;;3.33;1.58;;;19.00;72.40;;;;;;4151009;28;20091;-59
2021/05/24 02:51:28;;;;;;;3.38;1.58;;;19.00;73.10;;;;;;4148902;28;20037;-58
2021/05/24 02:53:30;;;;;;;1.70;1.60;;;19.10;72.50;;;;;;4148654;28;20490;-59
2021/05/24 02:55:32;;;;;;;3.20;1.73;;;19.10;72.50;;;;;;4150633;28;20102;-60
2021/05/24 02:57:35;;;;;;;1.58;1.40;;;19.10;72.50;;;;;;4150678;28;20041;-58
2021/05/24 02:59:37;;;;;;;3.22;1.88;;;19.10;72.40;;;;;;4149027;28;20060;-57
2021/05/24 03:01:39;;;;;;;2.95;2.10;;;19.10;72.40;;;;;;4148786;28;20075;-59
2021/05/24 03:03:42;;;;;;;2.65;1.58;;;19.10;73.00;;;;;;4151243;28;20465;-58
2021/05/24 03:05:44;;;;;;;1.97;1.77;;;19.10;73.20;;;;;;4150438;28;20041;-58
2021/05/24 03:07:47;;;;;;;2.75;1.60;;;19.20;73.50;;;;;;4148383;28;20732;-59
2021/05/24 03:09:49;;;;;;;1.65;1.25;;;19.20;73.40;;;;;;4150611;28;20033;-59
2021/05/24 03:11:52;;;;;;;1.38;1.00;;;19.20;73.40;;;;;;4149461;28;20037;-58
2021/05/24 03:13:54;;;;;;;1.88;1.35;;;19.20;73.60;;;;;;4148926;28;20033;-58
2021/05/24 03:15:57;;;;;;;1.35;1.20;;;19.20;73.70;;;;;;4150438;28;20025;-58
2021/05/24 03:17:59;;;;;;;1.77;1.40;;;19.20;73.70;;;;;;4150339;28;20037;-58
2021/05/24 03:20:01;;;;;;;3.95;1.80;;;19.30;73.80;;;;;;4148377;28;20495;-58
2021/05/24 03:22:03;;;;;;;3.50;1.40;;;19.30;73.90;;;;;;4151303;28;20032;-58
2021/05/24 03:24:06;;;;;;;3.45;1.67;;;19.30;73.90;;;;;;4149036;28;20049;-58
2021/05/24 03:26:09;;;;;;;2.78;1.38;;;19.30;73.80;;;;;;4147430;28;20316;-59
2021/05/24 03:28:11;;;;;;;2.75;1.50;;;19.30;73.80;;;;;;4150999;28;20028;-58
2021/05/24 03:30:16;;;;;;;2.47;1.45;;;19.40;73.80;;;;;;4148702;28;20060;-58
2021/05/24 03:32:18;;;;;;;2.40;1.48;;;19.30;73.70;;;;;;4148399;28;20047;-58
2021/05/24 03:34:23;;;;;;;3.30;1.70;;;19.40;73.70;;;;;;4150198;28;20877;-59
2021/05/24 03:36:25;;;;;;;3.97;1.60;;;19.40;73.70;;;;;;4148071;28;20029;-59
2021/05/24 03:38:27;;;;;;;5.10;1.55;;;19.40;73.60;;;;;;4146717;28;20052;-59
2021/05/24 03:40:29;;;;;;;2.80;1.50;;;19.40;73.50;;;;;;4149771;28;20021;-58
2021/05/24 03:42:31;;;;;;;2.10;1.27;;;19.40;73.40;;;;;;4148093;28;20214;-59
2021/05/24 03:44:35;;;;;;;2.22;1.40;;;19.40;73.30;;;;;;4146813;28;20501;-59
2021/05/24 03:46:36;;;;;;;;;;;19.40;73.30;;;;;;4145745;28;20039;-61
2021/05/24 03:48:38;;;;;;;4.53;1.70;;;19.50;73.30;;;;;;4149784;28;19975;-59
2021/05/24 03:50:41;;;;;;;2.60;1.48;;;19.40;73.20;;;;;;4148392;28;20048;-60
2021/05/24 03:52:44;;;;;;;3.15;1.52;;;19.50;73.20;;;;;;4147462;28;20094;-59
2021/05/24 03:54:46;;;;;;;1.45;1.08;;;19.50;73.30;;;;;;4148264;28;20033;-59
2021/05/24 03:56:48;;;;;;;3.25;1.75;;;19.50;73.20;;;;;;4148459;28;21299;-59
2021/05/24 03:58:51;;;;;;;2.15;1.30;;;19.50;73.10;;;;;;4148226;28;21190;-59
2021/05/24 04:00:53;;;;;;;3.77;1.47;;;19.50;73.00;;;;;;4148352;28;20182;-58
2021/05/24 04:02:55;;;;;;;2.40;1.38;;;19.50;73.00;;;;;;4145923;28;20057;-59
2021/05/24 04:04:59;;;;;;;2.83;1.23;;;19.50;72.90;;;;;;4148686;28;20071;-58
2021/05/24 04:07:02;;;;;;;;;;;19.50;73.00;;;;;;4148897;28;20025;-57
2021/05/24 04:09:05;;;;;;;2.38;1.50;;;19.50;72.90;;;;;;4147493;28;19931;-58
2021/05/24 04:11:07;;;;;;;6.18;1.60;;;19.60;73.00;;;;;;4147526;28;20037;-58
2021/05/24 04:13:09;;;;;;;2.72;1.65;;;19.60;72.90;;;;;;4148030;28;20036;-59
2021/05/24 04:15:12;;;;;;;5.53;1.73;;;19.60;72.90;;;;;;4147982;28;20044;-58
2021/05/24 04:17:16;;;;;;;1.85;1.17;;;19.60;72.90;;;;;;4147703;28;20564;-59
2021/05/24 04:19:17;;;;;;;;;;;19.60;72.90;;;;;;4150928;28;20033;-63
2021/05/24 04:21:19;;;;;;;2.25;1.40;;;19.60;72.90;;;;;;4148325;28;20041;-59
2021/05/24 04:23:21;;;;;;;2.50;1.20;;;19.60;72.60;;;;;;4148001;28;20052;-60
2021/05/24 04:25:24;;;;;;;2.22;1.38;;;19.60;72.30;;;;;;4149278;28;20029;-60
2021/05/24 04:27:26;;;;;;;2.90;1.75;;;19.60;72.00;;;;;;4148241;28;20990;-59
2021/05/24 04:29:28;;;;;;;2.00;1.13;;;19.60;71.70;;;;;;4146999;28;20067;-61
2021/05/24 04:31:30;;;;;;;3.38;1.60;;;19.60;71.40;;;;;;4149653;28;20052;-61
2021/05/24 04:33:32;;;;;;;2.50;1.30;;;19.60;71.50;;;;;;4147308;28;20130;-61
2021/05/24 04:35:35;;;;;;;2.50;1.25;;;19.60;71.20;;;;;;4147440;28;20045;-62
2021/05/24 04:37:37;;;;;;;4.10;1.30;;;19.60;71.20;;;;;;4145169;28;20576;-62
2021/05/24 04:39:43;;;;;;;2.28;1.38;;;19.60;71.10;;;;;;4147160;28;20029;-61
2021/05/24 04:41:45;;;;;;;2.50;1.17;;;19.60;71.20;;;;;;4148278;28;20143;-60
2021/05/24 04:43:47;;;;;;;2.58;1.60;;;19.60;71.20;;;;;;4145296;28;20148;-62
2021/05/24 04:45:49;;;;;;;2.78;1.33;;;19.60;71.20;;;;;;4146995;28;20253;-61
2021/05/24 04:47:52;;;;;;;2.28;1.42;;;19.50;71.10;;;;;;4146735;28;21006;-61
2021/05/24 04:49:55;;;;;;;1.58;1.20;;;19.50;71.20;;;;;;4146332;28;20357;-61
2021/05/24 04:51:58;;;;;;;1.58;1.30;;;19.50;71.20;;;;;;4147992;28;20542;-61
2021/05/24 04:54:00;;;;;;;4.05;1.50;;;19.60;71.30;;;;;;4146594;28;20049;-62
2021/05/24 04:56:02;;;;;;;3.47;1.38;;;19.60;71.30;;;;;;4145534;28;20668;-61
2021/05/24 04:58:06;;;;;;;2.60;1.40;;;19.60;71.30;;;;;;4149267;28;20047;-61
2021/05/24 05:00:13;;;;;;;2.95;1.40;;;19.60;71.30;;;;;;4146241;28;20582;-61
2021/05/24 05:02:16;;;;;;;1.50;1.17;;;19.60;71.30;;;;;;4147995;28;20267;-61
2021/05/24 05:04:18;;;;;;;2.58;1.30;;;19.60;71.20;;;;;;4146837;28;20112;-62
2021/05/24 05:06:21;;;;;;;2.47;1.50;;;19.60;71.30;;;;;;4147244;28;20055;-61
2021/05/24 05:08:23;;;;;;;1.57;1.20;;;19.60;71.40;;;;;;4145708;28;20289;-61
2021/05/24 05:10:25;;;;;;;1.67;1.30;;;19.60;71.40;;;;;;4148026;28;20088;-61
2021/05/24 05:12:28;;;;;;;2.15;1.38;;;19.60;71.30;;;;;;4145296;28;20068;-62
2021/05/24 05:14:30;;;;;;;3.45;1.50;;;19.60;71.40;;;;;;4145894;28;20364;-60
2021/05/24 05:16:32;;;;;;;1.50;1.30;;;19.60;71.50;;;;;;4148878;28;20123;-60
2021/05/24 05:18:35;;;;;;;2.30;1.23;;;19.70;71.50;;;;;;4146653;28;20965;-61
2021/05/24 05:20:37;;;;;;;2.22;1.63;;;19.70;71.20;;;;;;4148799;28;20467;-61
2021/05/24 05:22:39;;;;;;;1.92;1.30;;;19.80;71.20;;;;;;4144325;28;20041;-61
2021/05/24 05:24:41;;;;;;;3.50;1.42;;;19.80;71.10;;;;;;4148821;28;21195;-60
2021/05/24 05:26:44;;;;;;;1.83;1.30;;;19.80;71.10;;;;;;4145012;28;20049;-61
2021/05/24 05:28:46;;;;;;;4.30;1.60;;;19.90;71.00;;;;;;4146424;28;20056;-62
2021/05/24 05:30:48;;;;;;;3.13;1.20;;;19.90;70.90;;;;;;4148012;28;20073;-62
2021/05/24 05:32:50;;;;;;;2.63;1.58;;;19.90;70.90;;;;;;4146873;28;20350;-61
2021/05/24 05:34:52;;;;;;;2.55;1.35;;;19.90;70.90;;;;;;4146660;28;20125;-62
2021/05/24 05:36:54;;;;;;;1.45;1.10;;;19.90;70.80;;;;;;4147667;28;20064;-61
2021/05/24 05:38:56;;;;;;;3.95;1.55;;;19.90;70.90;;;;;;4139430;28;20037;-62
2021/05/24 05:40:59;;;;;;;5.00;1.48;;;19.80;70.90;;;;;;4141130;28;20160;-61
2021/05/24 05:43:01;;;;;;;3.00;1.40;;;19.80;70.90;;;;;;4143220;28;20550;-61
2021/05/24 05:45:03;;;;;;;3.50;1.33;;;19.80;70.90;;;;;;4140610;28;20064;-61
2021/05/24 05:47:06;;;;;;;2.60;1.33;;;19.80;70.90;;;;;;4141547;28;20123;-62
2021/05/24 05:49:08;;;;;;;1.75;1.30;;;19.80;71.40;;;;;;4142565;28;20917;-62
2021/05/24 05:51:10;;;;;;;3.38;1.35;;;19.80;71.00;;;;;;4143034;28;20037;-62
2021/05/24 05:53:12;;;;;;;2.50;1.23;;;19.80;71.00;;;;;;4141093;28;20623;-60
2021/05/24 05:55:14;;;;;;;5.78;1.55;;;19.80;71.10;;;;;;4143094;28;20029;-62
2021/05/24 05:57:16;;;;;;;2.28;1.20;;;19.80;71.10;;;;;;4140570;28;20438;-61
2021/05/24 05:59:19;;;;;;;1.70;1.13;;;19.80;71.20;;;;;;4138843;28;20146;-62
2021/05/24 06:01:21;;;;;;;3.00;1.35;;;19.80;71.20;;;;;;4143213;28;20139;-62
2021/05/24 06:03:23;;;;;;;4.80;1.55;;;19.80;71.20;;;;;;4144245;28;20643;-59
2021/05/24 06:05:25;;;;;;;4.47;1.95;;;19.80;71.30;;;;;;4145895;28;21095;-61
2021/05/24 06:07:28;;;;;;;1.63;1.30;;;19.80;71.20;;;;;;4150083;28;20037;-60
2021/05/24 06:09:30;;;;;;;4.57;1.50;;;19.80;72.00;;;;;;4147374;28;20040;-61
2021/05/24 06:11:32;;;;;;;3.25;1.48;;;19.80;71.40;;;;;;4147292;28;20107;-60
2021/05/24 06:13:35;;;;;;;8.77;1.88;;;19.80;71.30;;;;;;4147141;28;20033;-60
2021/05/24 06:15:37;;;;;;;2.20;1.27;;;19.80;71.40;;;;;;4144238;28;20214;-61
2021/05/24 06:17:39;;;;;;;4.43;1.38;;;19.80;71.40;;;;;;4140765;28;20497;-59
2021/05/24 06:19:41;;;;;;;3.97;1.65;;;19.80;71.40;;;;;;4140256;28;20029;-60
2021/05/24 06:21:44;;;;;;;3.88;1.40;;;19.80;71.30;;;;;;4140393;28;20519;-61
2021/05/24 06:23:46;;;;;;;7.47;1.73;;;19.80;70.90;;;;;;4134803;28;20720;-63
2021/05/24 06:25:48;;;;;;;11.05;2.08;;;19.80;71.90;;;;;;4139344;28;20465;-60
2021/05/24 06:27:50;;;;;;;5.38;1.67;;;19.70;71.30;;;;;;4141012;28;20075;-62
2021/05/24 06:29:53;;;;;;;10.35;1.95;;;19.80;71.50;;;;;;4141831;28;20034;-61
2021/05/24 06:31:56;;;;;;;5.60;1.48;;;19.70;71.50;;;;;;4140063;28;20031;-60
2021/05/24 06:33:58;;;;;;;;;;;19.70;71.60;;;;;;4142805;28;20053;-60
2021/05/24 06:36:00;;;;;;;9.10;1.60;;;19.80;71.70;;;;;;4136182;28;20391;-60
2021/05/24 06:38:02;;;;;;;8.93;1.58;;;19.80;71.70;;;;;;4136204;28;20037;-59
2021/05/24 06:40:05;;;;;;;6.53;1.67;;;19.80;71.70;;;;;;4138908;28;20423;-61
2021/05/24 06:42:08;;;;;;;6.28;1.70;;;19.80;71.70;;;;;;4135285;28;20653;-60
2021/05/24 06:44:10;;;;;;;8.88;1.33;;;19.80;71.90;;;;;;4138104;28;20037;-60
2021/05/24 06:46:12;;;;;;;8.57;1.70;;;19.80;72.00;;;;;;4139653;28;20108;-59
2021/05/24 06:48:14;;;;;;;9.18;1.58;;;19.80;72.20;;;;;;4137400;28;20036;-59
2021/05/24 06:50:16;;;;;;;8.07;1.65;;;19.80;72.10;;;;;;4142076;28;20754;-60
2021/05/24 06:52:18;;;;;;;6.38;1.05;;;19.80;72.10;;;;;;4140557;28;20103;-60
2021/05/24 06:54:20;;;;;;;9.13;1.35;;;19.80;72.00;;;;;;4140349;28;20243;-60
2021/05/24 06:56:23;;;;;;;5.70;1.05;;;19.80;72.10;;;;;;4140221;28;20041;-60
2021/05/24 06:58:25;;;;;;;4.53;1.10;;;19.80;72.00;;;;;;4141020;28;20033;-59
2021/05/24 07:00:27;;;;;;;11.93;1.33;;;19.80;72.00;;;;;;4140872;28;20447;-60
2021/05/24 07:02:29;;;;;;;4.00;0.93;;;19.80;72.00;;;;;;4139533;28;20114;-61
2021/05/24 07:04:31;;;;;;;3.20;1.30;;;19.80;71.90;;;;;;4142765;28;20033;-61
2021/05/24 07:06:33;;;;;;;3.97;1.00;;;19.80;72.00;;;;;;4140456;28;20124;-60
2021/05/24 07:08:39;;;;;;;4.63;1.08;;;19.80;72.00;;;;;;4140131;28;20087;-60
2021/05/24 07:10:41;;;;;;;2.05;0.80;;;19.80;72.00;;;;;;4140066;28;20052;-61
2021/05/24 07:12:43;;;;;;;1.98;0.65;;;19.80;72.00;;;;;;4146136;28;20025;-61
2021/05/24 07:14:50;;;;;;;2.45;0.80;;;19.80;72.00;;;;;;4143239;28;20163;-60
2021/05/24 07:16:54;;;;;;;1.48;0.70;;;19.80;72.10;;;;;;4144917;28;20041;-60
2021/05/24 07:18:56;;;;;;;2.60;1.05;;;19.80;72.10;;;;;;4145160;28;20032;-60
2021/05/24 07:20:58;;;;;;;3.42;1.10;;;19.70;72.00;;;;;;4144748;28;20076;-61
2021/05/24 07:23:00;;;;;;;1.92;0.82;;;19.70;72.00;;;;;;4143348;28;20238;-61
2021/05/24 07:25:03;;;;;;;2.22;0.80;;;19.80;72.10;;;;;;4146022;28;20080;-60
2021/05/24 07:27:06;;;;;;;0.68;0.65;;;19.70;72.20;;;;;;4143608;28;20044;-61
2021/05/24 07:29:08;;;;;;;1.60;0.60;;;19.70;72.30;;;;;;4159301;28;20297;-60
2021/05/24 07:31:11;;;;;;;1.55;1.00;;;19.80;72.30;;;;;;4144404;28;20043;-62
2021/05/24 07:33:13;;;;;;;1.42;0.88;;;19.70;72.30;;;;;;4143592;28;20407;-60
2021/05/24 07:35:15;;;;;;;2.13;1.00;;;19.70;72.80;;;;;;4141375;28;20936;-62
2021/05/24 07:37:17;;;;;;;2.10;1.05;;;19.80;72.80;;;;;;4144050;28;20744;-60
2021/05/24 07:39:19;;;;;;;2.70;0.90;;;19.80;72.90;;;;;;4142384;28;20386;-61
2021/05/24 07:41:21;;;;;;;1.70;1.20;;;19.80;72.90;;;;;;4142134;28;20159;-61
2021/05/24 07:43:23;;;;;;;3.28;1.80;;;19.80;72.90;;;;;;4142931;28;20075;-61
2021/05/24 07:45:25;;;;;;;4.38;2.35;;;19.70;72.90;;;;;;4141945;28;20105;-61
2021/05/24 07:47:27;;;;;;;6.68;2.60;;;19.80;73.10;;;;;;4143027;28;20048;-61
2021/05/24 07:49:29;;;;;;;3.65;2.80;;;19.80;73.10;;;;;;4144749;28;20394;-59
2021/05/24 07:51:32;;;;;;;7.00;3.53;;;19.80;73.20;;;;;;4143639;28;20042;-57
2021/05/24 07:53:34;;;;;;;5.25;4.18;;;19.80;73.20;;;;;;4140590;28;20521;-60
2021/05/24 07:55:36;;;;;;;4.70;4.20;;;19.80;73.10;;;;;;4143399;28;20067;-61
2021/05/24 07:57:39;;;;;;;5.75;4.55;;;19.80;73.20;;;;;;4141395;28;20052;-60
2021/05/24 07:59:41;;;;;;;6.53;5.40;;;19.80;73.20;;;;;;4141271;28;20064;-59
2021/05/24 08:01:43;;;;;;;7.07;5.75;;;19.80;73.20;;;;;;4142170;28;20072;-61
2021/05/24 08:03:45;;;;;;;6.45;5.88;;;19.80;73.40;;;;;;4143940;28;20167;-61
2021/05/24 08:05:47;;;;;;;6.43;5.93;;;19.80;73.30;;;;;;4140477;28;20989;-60
2021/05/24 08:07:51;;;;;;;7.20;6.45;;;19.80;73.20;;;;;;4142360;28;20086;-59
2021/05/24 08:09:53;;;;;;;6.50;6.00;;;19.80;73.10;;;;;;4141810;28;20553;-59
2021/05/24 08:11:56;;;;;;;7.32;6.60;;;19.80;73.10;;;;;;4141034;28;20163;-61
2021/05/24 08:13:58;;;;;;;6.80;6.30;;;19.80;73.10;;;;;;4140956;28;20179;-62
2021/05/24 08:16:00;;;;;;;6.75;6.25;;;19.80;73.10;;;;;;4143193;28;21370;-61
2021/05/24 08:18:05;;;;;;;7.13;6.40;;;19.80;73.20;;;;;;4142086;28;20041;-61
2021/05/24 08:20:08;;;;;;;6.97;6.38;;;19.80;73.20;;;;;;4142038;28;20045;-62
2021/05/24 08:22:10;;;;;;;6.70;6.20;;;19.80;73.10;;;;;;4142332;28;20061;-61
2021/05/24 08:24:13;;;;;;;7.20;6.60;;;19.80;73.10;;;;;;4142590;28;20037;-61
2021/05/24 08:26:16;;;;;;;6.65;6.20;;;19.80;73.10;;;;;;4140665;28;20098;-61
2021/05/24 08:28:19;;;;;;;7.20;6.65;;;19.80;73.10;;;;;;4143076;28;20032;-60
2021/05/24 08:30:21;;;;;;;7.60;7.10;;;19.80;73.20;;;;;;4142160;28;20053;-60
2021/05/24 08:32:23;;;;;;;7.23;6.73;;;19.80;73.20;;;;;;4144240;28;20075;-60
2021/05/24 08:34:26;;;;;;;7.20;6.70;;;19.80;73.20;;;;;;4143594;28;20140;-60
2021/05/24 08:36:28;;;;;;;;;;;19.80;73.20;;;;;;4142681;28;20053;-61
2021/05/24 08:38:31;;;;;;;7.25;6.75;;;19.80;73.20;;;;;;4141902;28;20406;-60
2021/05/24 08:40:33;;;;;;;7.38;6.63;;;19.80;73.30;;;;;;4143333;28;20087;-61
2021/05/24 08:42:39;;;;;;;7.30;6.70;;;19.80;73.30;;;;;;4140903;28;20052;-61
2021/05/24 08:44:44;;;;;;;7.22;6.72;;;19.80;73.40;;;;;;4140791;28;20064;-60
2021/05/24 08:46:47;;;;;;;6.90;6.30;;;19.80;73.50;;;;;;4142505;28;20063;-62
2021/05/24 08:48:49;;;;;;;11.27;10.38;;;19.80;73.50;;;;;;4142277;28;20098;-59
2021/05/24 08:50:51;;;;;;;9.68;8.88;;;19.80;73.50;;;;;;4142148;28;20528;-59
2021/05/24 08:52:54;;;;;;;9.73;8.90;;;19.80;73.60;;;;;;4142286;28;20033;-58
2021/05/24 08:54:56;;;;;;;8.82;8.23;;;19.80;73.70;;;;;;4143892;28;20494;-58
2021/05/24 08:56:58;;;;;;;8.63;8.02;;;19.80;73.50;;;;;;4143553;28;20045;-56
2021/05/24 08:59:02;;;;;;;9.15;8.10;;;19.90;73.60;;;;;;4142968;28;20217;-59
2021/05/24 09:01:06;;;;;;;9.10;8.30;;;19.90;73.50;;;;;;4142314;28;20037;-59
2021/05/24 09:03:23;;;;;;;8.48;7.75;;;19.90;73.60;;;;;;4135389;28;20052;-59
2021/05/24 09:05:31;;;;;;;8.52;7.80;;;19.90;73.60;;;;;;4141572;28;20047;-57
2021/05/24 09:07:59;;;;;;;8.10;7.50;;;19.90;73.50;;;;;;4143290;28;20044;-53
2021/05/24 09:10:05;;;;;;;8.52;7.90;;;19.90;73.40;;;;;;4141986;28;20463;-57
2021/05/24 09:12:21;;;;;;;7.93;7.32;;;20.00;73.50;;;;;;4140571;28;20115;-59
2021/05/24 09:14:26;;;;;;;8.63;7.90;;;19.90;73.30;;;;;;4141339;28;20041;-59
2021/05/24 09:16:31;;;;;;;8.23;7.63;;;19.90;73.10;;;;;;4148477;28;20181;-59
2021/05/24 09:18:33;;;;;;;8.40;7.70;;;19.90;72.90;;;;;;4146719;28;20044;-59
2021/05/24 09:20:41;;;;;;;7.60;7.10;;;19.90;72.70;;;;;;4146990;28;21119;-59
2021/05/24 09:22:43;;;;;;;7.38;6.75;;;19.90;72.50;;;;;;4146723;28;20537;-59
2021/05/24 09:24:46;;;;;;;7.10;6.50;;;19.90;72.40;;;;;;4149603;28;20443;-59
2021/05/24 09:26:48;;;;;;;7.67;7.10;;;19.90;72.30;;;;;;4147799;28;20083;-60
2021/05/24 09:28:51;;;;;;;6.75;6.22;;;19.90;72.20;;;;;;4146625;28;20036;-58
2021/05/24 09:30:57;;;;;;;6.00;5.60;;;19.90;72.20;;;;;;4149819;28;20037;-59
2021/05/24 09:33:15;;;;;;;5.88;5.47;;;19.90;72.10;;;;;;4147719;28;20033;-58
2021/05/24 09:35:19;;;;;;;5.97;5.47;;;19.90;72.10;;;;;;4144443;28;20362;-58
2021/05/24 09:37:34;;;;;;;5.68;5.28;;;19.90;71.90;;;;;;4148823;28;20688;-59
2021/05/24 09:39:37;;;;;;;5.72;5.25;;;19.90;72.00;;;;;;4141744;28;20069;-56
2021/05/24 09:41:45;;;;;;;5.50;5.10;;;19.80;71.90;;;;;;4146184;28;20041;-57
2021/05/24 09:43:57;;;;;;;5.57;5.05;;;19.80;73.00;;;;;;4144708;28;21452;-57
2021/05/24 09:46:12;;;;;;;5.57;5.18;;;19.80;72.60;;;;;;4146881;28;20218;-55
2021/05/24 09:48:14;;;;;;;5.20;4.72;;;19.80;72.70;;;;;;4143531;28;20554;-52
2021/05/24 09:50:19;;;;;;;4.80;4.40;;;19.80;72.80;;;;;;4147553;28;20382;-55
2021/05/24 09:52:35;;;;;;;5.00;4.60;;;19.80;72.90;;;;;;4145822;28;20056;-54
2021/05/24 09:54:40;;;;;;;4.53;4.13;;;19.80;72.90;;;;;;4144752;28;20044;-52
2021/05/24 09:56:48;;;;;;;4.43;4.03;;;19.90;72.90;;;;;;4146286;28;20407;-54
2021/05/24 09:59:11;;;;;;;4.38;3.97;;;19.90;72.90;;;;;;4144208;28;20058;-56
2021/05/24 10:01:29;;;;;;;4.20;3.80;;;19.90;72.90;;;;;;4146626;28;20590;-54
2021/05/24 10:03:34;;;;;;;4.20;3.80;;;19.90;72.90;;;;;;4142396;28;20094;-55
2021/05/24 10:05:48;;;;;;;3.90;3.60;;;19.90;72.90;;;;;;4143372;28;20561;-57
2021/05/24 10:07:51;;;;;;;4.05;3.70;;;19.90;72.80;;;;;;4142401;28;20037;-56
2021/05/24 10:09:53;;;;;;;4.28;3.90;;;19.90;72.80;;;;;;4143207;28;21228;-52
2021/05/24 10:11:55;;;;;;;4.30;3.55;;;19.90;72.80;;;;;;4142023;28;20055;-52
2021/05/24 10:13:59;;;;;;;4.25;3.70;;;19.90;72.90;;;;;;4141758;28;20045;-54
2021/05/24 10:16:02;;;;;;;;;;;20.00;72.90;;;;;;4146943;28;20029;-57
2021/05/24 10:18:05;;;;;;;3.40;3.10;;;19.90;72.70;;;;;;4144221;28;20516;-56
2021/05/24 10:20:07;;;;;;;;;;;19.90;72.70;;;;;;4142039;28;20075;-55
2021/05/24 10:22:09;;;;;;;3.47;3.17;;;20.00;72.70;;;;;;4146460;28;20276;-57
2021/05/24 10:24:12;;;;;;;3.50;3.17;;;20.00;72.70;;;;;;4139895;28;20128;-55
2021/05/24 10:26:17;;;;;;;3.78;3.20;;;20.00;72.70;;;;;;4143605;28;20037;-54
2021/05/24 10:28:22;;;;;;;4.00;3.10;;;20.00;72.70;;;;;;4144615;28;20076;-56
2021/05/24 10:30:24;;;;;;;3.63;2.58;;;20.00;72.70;;;;;;4145515;28;20594;-57
2021/05/24 10:32:26;;;;;;;3.78;2.70;;;20.00;72.60;;;;;;4148181;28;20033;-54
2021/05/24 10:34:39;;;;;;;3.75;2.88;;;20.00;72.70;;;;;;4151095;28;20599;-57
2021/05/24 10:36:42;;;;;;;2.78;2.42;;;20.00;72.60;;;;;;4151767;28;20051;-57
2021/05/24 10:39:00;;;;;;;4.18;2.58;;;20.00;72.60;;;;;;4152913;28;20721;-59
2021/05/24 10:41:13;;;;;;;3.00;2.20;;;20.00;72.60;;;;;;4144619;28;20072;-57
2021/05/24 10:43:18;;;;;;;3.10;2.65;;;20.00;72.70;;;;;;4143913;28;20045;-54